createdAt,value
2018-04-26T00:01:24.095Z,9.10
2018-04-26T00:03:50.481Z,8.07
2018-04-26T00:06:16.903Z,8.50
2018-04-26T00:08:43.338Z,8.03
2018-04-26T00:11:09.761Z,9.13
2018-04-26T00:13:36.180Z,8.57
2018-04-26T00:16:02.558Z,8.00
2018-04-26T00:18:28.935Z,8.30
2018-04-26T00:20:55.254Z,8.80
2018-04-26T00:23:21.624Z,8.30
2018-04-26T00:25:48.187Z,7.47
2018-04-26T00:28:14.510Z,8.10
2018-04-26T00:30:40.890Z,7.93
2018-04-26T00:33:07.272Z,8.30
2018-04-26T00:35:33.734Z,7.97
2018-04-26T00:38:00.163Z,7.63
2018-04-26T00:40:26.612Z,8.37
2018-04-26T00:42:53.002Z,8.07
2018-04-26T00:45:19.431Z,9.40
2018-04-26T00:47:45.783Z,9.20
2018-04-26T00:50:12.213Z,9.10
2018-04-26T00:52:38.617Z,8.33
2018-04-26T00:55:05.083Z,8.60
2018-04-26T00:57:31.452Z,9.17
2018-04-26T00:59:57.836Z,8.77
2018-04-26T01:02:24.187Z,9.20
2018-04-26T01:04:50.708Z,10.43
2018-04-26T01:07:17.025Z,9.97
2018-04-26T01:09:43.420Z,8.40
2018-04-26T01:12:09.736Z,8.13
2018-04-26T01:14:36.102Z,9.67
2018-04-26T01:17:02.529Z,9.40
2018-04-26T01:19:28.817Z,9.07
2018-04-26T01:21:55.210Z,9.53
2018-04-26T01:24:21.723Z,9.23
2018-04-26T01:26:48.120Z,9.20
2018-04-26T01:29:14.457Z,8.97
2018-04-26T01:31:40.851Z,9.23
2018-04-26T01:34:07.322Z,9.03
2018-04-26T01:36:45.746Z,9.60
2018-04-26T01:39:12.160Z,8.73
2018-04-26T01:41:38.469Z,9.27
2018-04-26T01:44:06.006Z,9.10
2018-04-26T01:46:32.310Z,9.20
2018-04-26T01:48:58.701Z,8.37
2018-04-26T01:51:25.083Z,10.37
2018-04-26T01:53:51.445Z,8.63
2018-04-26T01:56:17.878Z,9.37
2018-04-26T01:58:44.237Z,9.37
2018-04-26T02:01:10.564Z,8.43
2018-04-26T02:03:36.873Z,9.07
2018-04-26T02:06:03.392Z,9.67
2018-04-26T02:08:29.756Z,9.63
2018-04-26T02:10:56.112Z,9.03
2018-04-26T02:13:22.480Z,10.07
2018-04-26T02:15:49.916Z,8.67
2018-04-26T02:18:16.242Z,9.37
2018-04-26T02:20:42.612Z,9.37
2018-04-26T02:23:09.038Z,9.93
2018-04-26T02:25:35.555Z,9.77
2018-04-26T02:28:02.040Z,8.80
2018-04-26T02:30:28.392Z,8.77
2018-04-26T02:32:54.804Z,9.27
2018-04-26T02:35:21.267Z,9.40
2018-04-26T02:37:47.608Z,9.43
2018-04-26T02:40:14.021Z,8.83
2018-04-26T02:42:40.460Z,8.60
2018-04-26T02:45:06.959Z,9.80
2018-04-26T02:47:33.311Z,9.27
2018-04-26T02:49:59.817Z,10.47
2018-04-26T02:52:26.233Z,10.00
2018-04-26T02:54:52.625Z,10.03
2018-04-26T02:57:19.036Z,9.57
2018-04-26T02:59:45.351Z,9.20
2018-04-26T03:02:11.700Z,8.43
2018-04-26T03:04:38.217Z,9.70
2018-04-26T03:07:04.578Z,10.07
2018-04-26T03:09:30.924Z,8.63
2018-04-26T03:11:57.390Z,9.10
2018-04-26T03:14:23.874Z,9.53
2018-04-26T03:16:50.203Z,9.83
2018-04-26T03:19:16.571Z,9.37
2018-04-26T03:21:42.883Z,9.50
2018-04-26T03:24:09.328Z,8.90
2018-04-26T03:26:35.673Z,9.53
2018-04-26T03:29:02.061Z,9.63
2018-04-26T03:31:28.417Z,9.63
2018-04-26T03:33:54.764Z,10.10
2018-04-26T03:36:21.187Z,10.30
2018-04-26T03:38:47.555Z,10.50
2018-04-26T03:41:13.948Z,9.10
2018-04-26T03:43:40.398Z,10.30
2018-04-26T03:46:06.902Z,10.33
2018-04-26T03:48:33.415Z,9.93
2018-04-26T03:50:59.854Z,9.33
2018-04-26T03:53:26.275Z,10.43
2018-04-26T03:55:52.836Z,10.47
2018-04-26T03:58:19.285Z,9.67
2018-04-26T04:00:57.948Z,10.10
2018-04-26T04:03:36.692Z,9.67
2018-04-26T04:06:12.247Z,9.10
2018-04-26T04:08:38.711Z,9.07
2018-04-26T04:11:05.209Z,8.67
2018-04-26T04:13:31.655Z,8.07
2018-04-26T04:15:58.196Z,8.23
2018-04-26T04:18:24.576Z,8.17
2018-04-26T04:20:51.312Z,8.30
2018-04-26T04:23:18.355Z,8.27
2018-04-26T04:25:44.815Z,8.10
2018-04-26T04:28:11.153Z,7.47
2018-04-26T04:30:37.505Z,7.30
2018-04-26T04:33:03.906Z,8.00
2018-04-26T04:35:30.329Z,7.90
2018-04-26T04:37:56.826Z,8.00
2018-04-26T04:40:23.152Z,7.80
2018-04-26T04:42:49.500Z,9.13
2018-04-26T04:45:17.118Z,8.40
2018-04-26T04:47:43.498Z,8.33
2018-04-26T04:50:09.866Z,8.03
2018-04-26T04:52:36.541Z,8.40
2018-04-26T04:55:03.056Z,9.10
2018-04-26T04:57:29.490Z,8.20
2018-04-26T04:59:56.064Z,8.50
2018-04-26T05:02:22.535Z,7.67
2018-04-26T05:04:48.942Z,7.23
2018-04-26T05:07:15.484Z,7.63
2018-04-26T05:09:41.906Z,7.73
2018-04-26T05:12:08.347Z,7.97
2018-04-26T05:14:34.828Z,7.47
2018-04-26T05:17:01.251Z,7.47
2018-04-26T05:19:27.624Z,7.23
2018-04-26T05:21:54.051Z,7.57
2018-04-26T05:24:20.607Z,8.10
2018-04-26T05:26:48.083Z,8.93
2018-04-26T05:29:14.631Z,7.77
2018-04-26T05:31:41.109Z,7.97
2018-04-26T05:34:07.453Z,7.97
2018-04-26T05:36:33.978Z,8.60
2018-04-26T05:39:00.417Z,8.67
2018-04-26T05:41:26.815Z,8.10
2018-04-26T05:43:53.345Z,9.70
2018-04-26T05:46:19.805Z,8.03
2018-04-26T05:48:46.260Z,8.33
2018-04-26T05:51:12.975Z,8.57
2018-04-26T05:53:39.510Z,8.50
2018-04-26T05:56:06.684Z,8.60
2018-04-26T05:58:33.165Z,8.97
2018-04-26T06:00:59.718Z,9.10
2018-04-26T06:03:26.272Z,9.00
2018-04-26T06:05:52.838Z,9.33
2018-04-26T06:08:19.231Z,10.13
2018-04-26T06:10:45.658Z,9.53
2018-04-26T06:13:12.176Z,9.57
2018-04-26T06:15:38.559Z,9.37
2018-04-26T06:18:04.936Z,9.10
2018-04-26T06:20:31.365Z,10.07
2018-04-26T06:22:57.755Z,9.70
2018-04-26T06:25:24.257Z,9.30
2018-04-26T06:27:50.702Z,9.37
2018-04-26T06:30:17.412Z,10.17
2018-04-26T06:32:43.875Z,9.40
2018-04-26T06:35:11.937Z,8.80
2018-04-26T06:37:38.395Z,10.33
2018-04-26T06:40:04.882Z,10.03
2018-04-26T06:42:31.354Z,9.93
2018-04-26T06:44:57.906Z,9.37
2018-04-26T06:47:24.413Z,9.63
2018-04-26T06:49:50.827Z,9.03
2018-04-26T06:52:17.305Z,8.67
2018-04-26T06:54:43.783Z,9.70
2018-04-26T06:57:10.286Z,9.13
2018-04-26T06:59:36.642Z,9.70
2018-04-26T07:02:03.022Z,10.17
2018-04-26T07:04:29.515Z,9.33
2018-04-26T07:06:56.994Z,9.37
2018-04-26T07:09:23.437Z,9.73
2018-04-26T07:11:49.933Z,9.97
2018-04-26T07:14:17.072Z,9.67
2018-04-26T07:16:43.561Z,9.83
2018-04-26T07:19:09.941Z,10.17
2018-04-26T07:21:36.321Z,9.70
2018-04-26T07:24:02.740Z,10.00
2018-04-26T07:26:29.487Z,11.00
2018-04-26T07:28:55.967Z,11.10
2018-04-26T07:31:22.365Z,10.83
2018-04-26T07:33:48.751Z,9.47
2018-04-26T07:36:15.192Z,9.87
2018-04-26T07:38:41.566Z,10.07
2018-04-26T07:41:08.272Z,9.23
2018-04-26T07:43:34.988Z,10.33
2018-04-26T07:46:02.116Z,10.10
2018-04-26T07:48:28.544Z,9.47
2018-04-26T07:50:54.977Z,9.47
2018-04-26T07:53:21.412Z,10.20
2018-04-26T07:55:47.957Z,9.70
2018-04-26T07:58:14.373Z,8.43
2018-04-26T08:00:40.807Z,9.23
2018-04-26T08:03:07.371Z,9.17
2018-04-26T08:05:33.850Z,9.33
2018-04-26T08:08:00.238Z,9.87
2018-04-26T08:10:26.751Z,9.27
2018-04-26T08:12:53.263Z,8.83
2018-04-26T08:15:19.817Z,7.80
2018-04-26T08:17:46.754Z,9.13
2018-04-26T08:20:13.308Z,7.90
2018-04-26T08:22:40.645Z,8.07
2018-04-26T08:25:07.138Z,8.23
2018-04-26T08:27:33.561Z,7.90
2018-04-26T08:29:59.960Z,7.97
2018-04-26T08:32:26.402Z,7.87
2018-04-26T08:34:53.120Z,8.53
2018-04-26T08:37:19.689Z,7.77
2018-04-26T08:39:46.161Z,7.93
2018-04-26T08:42:12.532Z,7.33
2018-04-26T08:44:39.319Z,7.47
2018-04-26T08:47:05.919Z,7.47
2018-04-26T08:49:32.435Z,8.87
2018-04-26T08:51:58.830Z,8.47
2018-04-26T08:54:25.385Z,8.30
2018-04-26T08:56:51.815Z,7.77
2018-04-26T08:59:18.369Z,9.10
2018-04-26T09:01:44.889Z,8.90
2018-04-26T09:04:11.312Z,8.80
2018-04-26T09:06:37.847Z,6.50
2018-04-26T09:09:04.380Z,7.57
2018-04-26T09:11:30.741Z,6.57
2018-04-26T09:13:57.152Z,6.60
2018-04-26T09:16:23.689Z,5.37
2018-04-26T09:18:50.101Z,5.90
2018-04-26T09:21:16.615Z,6.20
2018-04-26T09:23:43.059Z,5.90
2018-04-26T09:26:09.569Z,6.23
2018-04-26T09:28:35.934Z,6.17
2018-04-26T09:31:02.431Z,7.03
2018-04-26T09:33:28.876Z,5.13
2018-04-26T09:35:55.314Z,5.53
2018-04-26T09:38:21.784Z,5.87
2018-04-26T09:40:48.134Z,5.33
2018-04-26T09:43:14.557Z,4.67
2018-04-26T09:45:41.081Z,3.87
2018-04-26T09:48:07.457Z,4.37
2018-04-26T09:50:33.940Z,4.57
2018-04-26T09:53:00.305Z,4.03
2018-04-26T09:55:26.633Z,4.50
2018-04-26T09:57:53.093Z,4.70
2018-04-26T10:00:25.688Z,5.00
2018-04-26T10:02:54.088Z,5.20
2018-04-26T10:08:20.815Z,4.70
2018-04-26T10:10:47.294Z,5.17
2018-04-26T10:13:13.655Z,4.90
2018-04-26T10:15:40.181Z,4.90
2018-04-26T10:18:06.586Z,4.77
2018-04-26T10:20:32.941Z,4.70
2018-04-26T10:22:59.411Z,5.10
2018-04-26T10:25:26.144Z,4.63
2018-04-26T10:27:52.643Z,4.40
2018-04-26T10:30:19.093Z,4.40
2018-04-26T10:32:45.571Z,5.00
2018-04-26T10:35:12.014Z,4.70
2018-04-26T10:37:39.575Z,4.80
2018-04-26T10:40:06.103Z,4.43
2018-04-26T10:42:32.754Z,4.80
2018-04-26T10:44:59.264Z,5.23
2018-04-26T10:47:26.030Z,4.10
2018-04-26T10:49:52.866Z,4.47
2018-04-26T10:52:19.329Z,4.83
2018-04-26T10:54:45.913Z,4.63
2018-04-26T10:57:16.714Z,5.40
2018-04-26T10:59:43.299Z,4.90
2018-04-26T11:02:09.822Z,4.87
2018-04-26T11:04:36.261Z,4.83
2018-04-26T11:07:02.765Z,5.27
2018-04-26T11:09:29.223Z,4.57
2018-04-26T11:11:55.674Z,4.63
2018-04-26T11:14:22.117Z,4.93
2018-04-26T11:16:48.728Z,5.03
2018-04-26T11:19:15.204Z,4.70
2018-04-26T11:21:41.707Z,4.93
2018-04-26T11:24:08.165Z,4.47
2018-04-26T11:26:34.824Z,4.60
2018-04-26T11:29:01.344Z,4.70
2018-04-26T11:31:29.523Z,5.17
2018-04-26T11:33:57.069Z,5.67
2018-04-26T11:36:25.460Z,5.77
2018-04-26T11:38:53.834Z,5.37
2018-04-26T11:41:21.494Z,5.47
2018-04-26T11:43:48.446Z,6.10
2018-04-26T11:46:15.061Z,6.00
2018-04-26T11:48:41.631Z,6.10
2018-04-26T11:51:08.574Z,5.17
2018-04-26T11:53:35.082Z,5.83
2018-04-26T11:56:02.821Z,5.50
2018-04-26T11:58:29.220Z,4.57
2018-04-26T12:00:55.642Z,5.67
2018-04-26T12:03:22.249Z,5.23
2018-04-26T12:05:48.596Z,5.43
2018-04-26T12:08:15.163Z,5.37
2018-04-26T12:10:41.740Z,5.67
2018-04-26T12:13:08.355Z,5.50
2018-04-26T12:15:34.747Z,4.57
2018-04-26T12:18:01.276Z,4.33
2018-04-26T12:20:27.792Z,4.60
2018-04-26T12:22:54.247Z,4.33
2018-04-26T12:25:20.739Z,5.07
2018-04-26T12:27:47.241Z,4.83
2018-04-26T12:30:13.704Z,4.30
2018-04-26T12:32:40.245Z,4.50
2018-04-26T12:35:06.739Z,4.40
2018-04-26T12:37:33.318Z,4.10
2018-04-26T12:39:59.875Z,4.40
2018-04-26T12:42:26.385Z,4.17
2018-04-26T12:44:52.867Z,4.23
2018-04-26T12:47:19.453Z,3.87
2018-04-26T12:49:45.891Z,4.30
2018-04-26T12:52:12.351Z,4.70
2018-04-26T12:54:38.797Z,4.30
2018-04-26T12:57:05.313Z,4.13
2018-04-26T12:59:31.791Z,4.50
2018-04-26T13:01:58.502Z,4.10
2018-04-26T13:04:24.972Z,4.70
2018-04-26T13:06:51.493Z,3.97
2018-04-26T13:09:18.022Z,4.20
2018-04-26T13:11:44.410Z,3.97
2018-04-26T13:14:10.885Z,4.17
2018-04-26T13:16:37.369Z,4.50
2018-04-26T13:19:03.828Z,4.13
2018-04-26T13:21:30.395Z,4.27
2018-04-26T13:23:57.079Z,4.23
2018-04-26T13:26:23.516Z,5.40
2018-04-26T13:28:49.906Z,6.00
2018-04-26T13:31:16.478Z,5.50
2018-04-26T13:33:43.293Z,5.80
2018-04-26T13:36:10.891Z,5.30
2018-04-26T13:38:37.882Z,5.47
2018-04-26T13:41:04.315Z,5.50
2018-04-26T13:43:30.974Z,5.30
2018-04-26T13:45:57.582Z,5.53
2018-04-26T13:48:24.137Z,5.63
2018-04-26T13:50:50.509Z,5.00
2018-04-26T13:53:17.063Z,5.23
2018-04-26T13:55:43.462Z,5.67
2018-04-26T13:58:09.851Z,5.67
2018-04-26T14:00:36.559Z,5.30
2018-04-26T14:03:03.019Z,5.40
2018-04-26T14:05:30.198Z,5.63
2018-04-26T14:07:56.748Z,5.03
2018-04-26T14:10:23.673Z,4.70
2018-04-26T14:12:50.120Z,5.20
2018-04-26T14:15:16.722Z,5.77
2018-04-26T14:17:44.080Z,5.50
2018-04-26T14:20:10.877Z,5.23
2018-04-26T14:22:37.442Z,4.93
2018-04-26T14:25:04.002Z,5.17
2018-04-26T14:27:30.660Z,4.73
2018-04-26T14:29:57.159Z,5.17
2018-04-26T14:32:23.824Z,5.60
2018-04-26T14:34:50.290Z,4.77
2018-04-26T14:37:17.462Z,5.63
2018-04-26T14:39:43.948Z,5.23
2018-04-26T14:42:10.437Z,5.43
2018-04-26T14:44:36.919Z,4.77
2018-04-26T14:47:03.462Z,4.63
2018-04-26T14:49:29.865Z,4.50
2018-04-26T14:51:57.538Z,4.43
2018-04-26T14:54:24.057Z,4.90
2018-04-26T14:56:50.576Z,4.63
2018-04-26T14:59:17.045Z,5.00
2018-04-26T15:01:43.404Z,4.47
2018-04-26T15:04:09.830Z,4.57
2018-04-26T15:06:36.326Z,4.60
2018-04-26T15:09:02.840Z,4.97
2018-04-26T15:11:29.321Z,5.23
2018-04-26T15:13:55.763Z,5.10
2018-04-26T15:16:22.405Z,4.57
2018-04-26T15:18:49.014Z,5.13
2018-04-26T15:21:15.594Z,5.17
2018-04-26T15:23:42.128Z,4.70
2018-04-26T15:26:08.557Z,4.57
2018-04-26T15:28:35.095Z,5.07
2018-04-26T15:31:01.477Z,4.90
2018-04-26T15:33:28.827Z,5.20
2018-04-26T15:35:55.242Z,4.47
2018-04-26T15:38:22.101Z,5.87
2018-04-26T15:40:48.562Z,4.93
2018-04-26T15:43:15.112Z,4.80
2018-04-26T15:45:42.408Z,5.37
2018-04-26T15:48:08.779Z,4.83
2018-04-26T15:50:51.744Z,4.63
2018-04-26T15:53:30.691Z,4.47
2018-04-26T15:56:09.409Z,5.93
2018-04-26T16:02:18.211Z,4.37
2018-04-26T16:04:56.969Z,4.93
2018-04-26T16:07:50.639Z,4.97
2018-04-26T16:10:29.481Z,4.57
2018-04-26T16:13:14.438Z,4.70
2018-04-26T16:15:59.349Z,4.23
2018-04-26T16:18:42.352Z,4.80
2018-04-26T16:21:27.403Z,4.70
2018-04-26T16:24:06.322Z,5.73
2018-04-26T16:26:51.391Z,4.50
2018-04-26T16:29:36.060Z,4.50
2018-04-26T16:32:20.762Z,4.03
2018-04-26T16:34:59.415Z,5.00
2018-04-26T16:37:44.300Z,4.73
2018-04-26T16:40:11.129Z,4.60
2018-04-26T16:42:37.529Z,4.37
2018-04-26T16:45:04.015Z,4.27
2018-04-26T16:47:34.247Z,4.17
2018-04-26T16:50:00.689Z,4.00
2018-04-26T16:52:27.275Z,5.03
2018-04-26T16:54:53.783Z,4.40
2018-04-26T16:57:20.216Z,3.93
2018-04-26T16:59:46.845Z,4.90
2018-04-26T17:02:13.580Z,4.50
2018-04-26T17:04:41.986Z,4.60
2018-04-26T17:07:08.567Z,4.50
2018-04-26T17:09:35.090Z,4.53
2018-04-26T17:12:01.483Z,4.10
2018-04-26T17:14:27.899Z,4.77
2018-04-26T17:16:54.500Z,4.47
2018-04-26T17:19:21.968Z,4.47
2018-04-26T17:21:48.421Z,5.13
2018-04-26T17:24:14.801Z,4.80
2018-04-26T17:26:41.454Z,4.60
2018-04-26T17:29:08.104Z,4.23
2018-04-26T17:31:35.197Z,4.20
2018-04-26T17:34:01.837Z,4.07
2018-04-26T17:36:28.294Z,4.20
2018-04-26T17:38:54.818Z,4.30
2018-04-26T17:41:21.243Z,4.50
2018-04-26T17:43:47.675Z,4.73
2018-04-26T17:46:14.166Z,4.53
2018-04-26T17:48:41.684Z,4.40
2018-04-26T17:51:08.201Z,4.47
2018-04-26T17:53:34.681Z,4.20
2018-04-26T17:56:01.070Z,4.00
2018-04-26T17:58:27.750Z,4.13
2018-04-26T18:00:54.202Z,4.27
2018-04-26T18:03:20.701Z,4.50
2018-04-26T18:05:47.138Z,4.27
2018-04-26T18:08:13.632Z,4.87
2018-04-26T18:10:40.237Z,4.13
2018-04-26T18:13:06.676Z,4.93
2018-04-26T18:15:33.418Z,4.77
2018-04-26T18:17:59.806Z,4.43
2018-04-26T18:20:26.188Z,4.60
2018-04-26T18:22:52.684Z,4.57
2018-04-26T18:25:19.133Z,4.70
2018-04-26T18:27:45.740Z,5.00
2018-04-26T18:30:12.344Z,5.30
2018-04-26T18:32:38.846Z,4.63
2018-04-26T18:35:05.332Z,4.73
2018-04-26T18:37:32.011Z,4.80
2018-04-26T18:39:58.557Z,4.73
2018-04-26T18:42:24.961Z,4.43
2018-04-26T18:44:51.465Z,4.63
2018-04-26T18:47:18.188Z,4.83
2018-04-26T18:49:44.655Z,5.03
2018-04-26T18:52:11.150Z,4.97
2018-04-26T18:54:37.689Z,4.83
2018-04-26T18:57:04.280Z,4.47
2018-04-26T18:59:30.750Z,4.73
2018-04-26T19:01:57.613Z,5.30
2018-04-26T19:04:24.199Z,4.73
2018-04-26T19:06:50.889Z,4.57
2018-04-26T19:09:17.273Z,4.67
2018-04-26T19:11:43.734Z,4.80
2018-04-26T19:14:10.286Z,4.87
2018-04-26T19:16:36.872Z,4.90
2018-04-26T19:19:03.486Z,4.73
2018-04-26T19:21:30.019Z,5.10
2018-04-26T19:23:56.496Z,4.53
2018-04-26T19:26:23.204Z,5.27
2018-04-26T19:28:49.930Z,4.57
2018-04-26T19:31:16.405Z,4.93
2018-04-26T19:33:43.023Z,4.90
2018-04-26T19:36:09.577Z,4.80
2018-04-26T19:38:36.186Z,4.60
2018-04-26T19:41:02.741Z,4.17
2018-04-26T19:43:29.378Z,5.03
2018-04-26T19:45:55.915Z,4.43
2018-04-26T19:48:23.527Z,4.73
2018-04-26T19:50:50.486Z,4.97
2018-04-26T19:53:17.490Z,4.60
2018-04-26T19:55:44.155Z,5.10
2018-04-26T19:58:10.938Z,4.77
2018-04-26T20:00:37.595Z,5.40
2018-04-26T20:03:04.285Z,5.13
2018-04-26T20:05:31.575Z,4.60
2018-04-26T20:07:58.540Z,5.20
2018-04-26T20:10:25.166Z,4.73
2018-04-26T20:12:51.917Z,5.10
2018-04-26T20:15:18.513Z,5.50
2018-04-26T20:17:45.097Z,4.90
2018-04-26T20:20:11.648Z,5.00
2018-04-26T20:22:38.412Z,5.50
2018-04-26T20:25:05.065Z,5.17
2018-04-26T20:27:31.893Z,4.93
2018-04-26T20:29:58.694Z,4.97
2018-04-26T20:32:25.200Z,5.20
2018-04-26T20:34:51.787Z,5.37
2018-04-26T20:37:18.284Z,5.40
2018-04-26T20:39:44.825Z,5.60
2018-04-26T20:42:11.452Z,5.33
2018-04-26T20:44:43.948Z,6.23
2018-04-26T20:47:10.522Z,5.40
2018-04-26T20:49:37.031Z,5.30
2018-04-26T20:52:03.654Z,5.20
2018-04-26T20:54:30.337Z,5.30
2018-04-26T20:56:56.787Z,5.27
2018-04-26T20:59:23.404Z,5.70
2018-04-26T21:01:50.094Z,5.53
2018-04-26T21:04:16.613Z,5.97
2018-04-26T21:06:43.091Z,5.30
2018-04-26T21:09:09.744Z,5.60
2018-04-26T21:11:36.265Z,5.80
2018-04-26T21:14:02.947Z,5.50
2018-04-26T21:16:29.683Z,5.57
2018-04-26T21:18:56.405Z,5.63
2018-04-26T21:21:23.014Z,5.53
2018-04-26T21:23:49.578Z,5.87
2018-04-26T21:26:16.101Z,5.60
2018-04-26T21:28:42.741Z,5.43
2018-04-26T21:31:09.169Z,6.23
2018-04-26T21:33:35.784Z,6.07
2018-04-26T21:36:02.302Z,5.50
2018-04-26T21:38:28.935Z,5.53
2018-04-26T21:40:55.600Z,6.03
2018-04-26T21:43:22.184Z,6.07
2018-04-26T21:45:48.928Z,6.20
2018-04-26T21:48:15.775Z,6.30
2018-04-26T21:50:48.464Z,5.50
2018-04-26T21:53:21.352Z,6.03
2018-04-26T21:55:53.969Z,5.67
2018-04-26T21:58:26.569Z,5.97
2018-04-26T22:00:59.153Z,6.33
2018-04-26T22:03:28.639Z,6.00
2018-04-26T22:05:55.236Z,6.47
2018-04-26T22:08:21.775Z,6.23
2018-04-26T22:10:48.286Z,6.10
2018-04-26T22:13:14.868Z,6.83
2018-04-26T22:15:41.378Z,5.97
2018-04-26T22:18:07.878Z,6.27
2018-04-26T22:20:34.528Z,6.33
2018-04-26T22:23:00.961Z,6.43
2018-04-26T22:25:27.384Z,6.37
2018-04-26T22:27:54.885Z,6.83
2018-04-26T22:30:21.406Z,6.20
2018-04-26T22:32:47.880Z,6.70
2018-04-26T22:35:14.370Z,6.23
2018-04-26T22:37:40.906Z,6.90
2018-04-26T22:40:07.402Z,6.87
2018-04-26T22:42:33.773Z,6.97
2018-04-26T22:45:00.272Z,6.27
2018-04-26T22:47:26.872Z,6.27
2018-04-26T22:49:53.259Z,6.53
2018-04-26T22:52:19.725Z,7.33
2018-04-26T22:54:46.216Z,5.93
2018-04-26T22:57:12.719Z,6.30
2018-04-26T22:59:39.122Z,5.47
2018-04-26T23:02:05.739Z,6.97
2018-04-26T23:04:32.221Z,7.17
2018-04-26T23:06:58.685Z,6.57
2018-04-26T23:09:25.248Z,6.67
2018-04-26T23:11:51.652Z,6.10
2018-04-26T23:14:18.040Z,6.20
2018-04-26T23:16:44.465Z,6.73
2018-04-26T23:19:10.909Z,6.07
2018-04-26T23:21:37.521Z,6.13
2018-04-26T23:24:04.037Z,6.30
2018-04-26T23:26:30.464Z,6.77
2018-04-26T23:28:56.933Z,7.40
2018-04-26T23:31:23.553Z,6.67
2018-04-26T23:33:49.977Z,6.60
2018-04-26T23:36:16.467Z,6.40
2018-04-26T23:38:42.900Z,7.00
2018-04-26T23:41:09.301Z,6.80
2018-04-26T23:43:35.692Z,6.80
2018-04-26T23:46:02.318Z,6.90
2018-04-26T23:48:28.720Z,6.53
2018-04-26T23:50:55.123Z,6.63
2018-04-26T23:53:21.708Z,6.53
2018-04-26T23:55:48.083Z,6.80
2018-04-26T23:58:14.555Z,6.77
